sensor_id;sensor_type;location;lat;lon;timestamp;pressure;altitude;pressure_sealevel;temperature;humidity
56456;BME280;42354;53.218;6.564;2023-03-23T00:01:03;47239.69;;;-142.92;100.00
56456;BME280;42354;53.218;6.564;2023-03-23T00:03:32;47245.84;;;-142.92;100.00
56456;BME280;42354;53.218;6.564;2023-03-23T00:05:58;47247.91;;;-142.92;100.00
56456;BME280;42354;53.218;6.564;2023-03-23T00:08:30;47241.75;;;-142.92;100.00
56456;BME280;42354;53.218;6.564;2023-03-23T00:10:55;47241.75;;;-142.92;100.00
56456;BME280;42354;53.218;6.564;2023-03-23T00:13:24;47245.84;;;-142.92;100.00
56456;BME280;42354;53.218;6.564;2023-03-23T00:15:49;47245.84;;;-142.92;100.00
56456;BME280;42354;53.218;6.564;2023-03-23T00:18:18;47241.75;;;-142.92;100.00
56456;BME280;42354;53.218;6.564;2023-03-23T00:20:51;47241.75;;;-142.92;100.00
56456;BME280;42354;53.218;6.564;2023-03-23T00:23:19;47237.66;;;-142.92;100.00
56456;BME280;42354;53.218;6.564;2023-03-23T00:25:46;47237.66;;;-142.92;100.00
56456;BME280;42354;53.218;6.564;2023-03-23T00:28:11;47243.81;;;-142.92;100.00
56456;BME280;42354;53.218;6.564;2023-03-23T00:30:38;47245.84;;;-142.92;100.00
56456;BME280;42354;53.218;6.564;2023-03-23T00:33:04;47239.69;;;-142.92;100.00
56456;BME280;42354;53.218;6.564;2023-03-23T00:35:29;47241.75;;;-142.92;100.00
56456;BME280;42354;53.218;6.564;2023-03-23T00:37:56;47241.75;;;-142.92;100.00
56456;BME280;42354;53.218;6.564;2023-03-23T00:40:24;47243.81;;;-142.92;100.00
56456;BME280;42354;53.218;6.564;2023-03-23T00:42:51;47247.91;;;-142.92;100.00
56456;BME280;42354;53.218;6.564;2023-03-23T00:45:17;47245.84;;;-142.92;100.00
56456;BME280;42354;53.218;6.564;2023-03-23T00:47:42;47245.84;;;-142.92;100.00
56456;BME280;42354;53.218;6.564;2023-03-23T00:50:12;47245.84;;;-142.92;100.00
56456;BME280;42354;53.218;6.564;2023-03-23T00:52:39;47237.66;;;-142.92;100.00
56456;BME280;42354;53.218;6.564;2023-03-23T00:55:05;47241.75;;;-142.92;100.00
56456;BME280;42354;53.218;6.564;2023-03-23T00:57:31;47241.75;;;-142.92;100.00
56456;BME280;42354;53.218;6.564;2023-03-23T00:59:56;47243.81;;;-142.92;100.00
56456;BME280;42354;53.218;6.564;2023-03-23T01:02:22;47243.81;;;-142.92;100.00
56456;BME280;42354;53.218;6.564;2023-03-23T01:04:50;47237.66;;;-142.92;100.00
56456;BME280;42354;53.218;6.564;2023-03-23T01:07:18;47235.59;;;-142.92;100.00
56456;BME280;42354;53.218;6.564;2023-03-23T01:09:43;47249.97;;;-142.92;100.00
56456;BME280;42354;53.218;6.564;2023-03-23T01:12:10;47243.81;;;-142.92;100.00
56456;BME280;42354;53.218;6.564;2023-03-23T01:14:37;47241.75;;;-142.92;100.00
56456;BME280;42354;53.218;6.564;2023-03-23T01:17:02;47247.91;;;-142.92;100.00
56456;BME280;42354;53.218;6.564;2023-03-23T01:19:28;47229.44;;;-142.92;100.00
56456;BME280;42354;53.218;6.564;2023-03-23T01:21:53;47237.66;;;-142.92;100.00
56456;BME280;42354;53.218;6.564;2023-03-23T01:24:19;47208.91;;;-142.92;100.00
56456;BME280;42354;53.218;6.564;2023-03-23T01:26:44;47200.69;;;-142.92;100.00
56456;BME280;42354;53.218;6.564;2023-03-23T01:29:10;47155.56;;;-142.92;100.00
56456;BME280;42354;53.218;6.564;2023-03-23T01:31:36;47137.09;;;-142.92;100.00
56456;BME280;42354;53.218;6.564;2023-03-23T01:34:02;47149.41;;;-142.92;100.00
56456;BME280;42354;53.218;6.564;2023-03-23T01:36:28;47143.25;;;-142.92;100.00
56456;BME280;42354;53.218;6.564;2023-03-23T01:39:01;47165.81;;;-142.92;100.00
56456;BME280;42354;53.218;6.564;2023-03-23T01:41:28;47180.19;;;-142.92;100.00
56456;BME280;42354;53.218;6.564;2023-03-23T01:46:19;47196.59;;;-142.92;100.00
56456;BME280;42354;53.218;6.564;2023-03-23T01:48:48;47208.91;;;-142.92;100.00
56456;BME280;42354;53.218;6.564;2023-03-23T01:51:17;47208.91;;;-142.92;100.00
56456;BME280;42354;53.218;6.564;2023-03-23T01:56:20;47208.91;;;-142.92;100.00
56456;BME280;42354;53.218;6.564;2023-03-23T01:58:50;47208.91;;;-142.92;100.00
56456;BME280;42354;53.218;6.564;2023-03-23T02:01:16;47210.97;;;-142.92;100.00
56456;BME280;42354;53.218;6.564;2023-03-23T02:03:44;47221.22;;;-142.92;100.00
56456;BME280;42354;53.218;6.564;2023-03-23T02:06:11;47210.97;;;-142.92;100.00
56456;BME280;42354;53.218;6.564;2023-03-23T02:08:38;47217.13;;;-142.92;100.00
56456;BME280;42354;53.218;6.564;2023-03-23T02:11:20;47208.91;;;-142.92;100.00
56456;BME280;42354;53.218;6.564;2023-03-23T02:13:48;47204.81;;;-142.92;100.00
56456;BME280;42354;53.218;6.564;2023-03-23T02:16:20;47208.91;;;-142.92;100.00
56456;BME280;42354;53.218;6.564;2023-03-23T02:30:30;47176.09;;;-142.92;100.00
56456;BME280;42354;53.218;6.564;2023-03-23T02:35:53;47153.50;;;-142.92;100.00
56456;BME280;42354;53.218;6.564;2023-03-23T02:38:32;47120.66;;;-142.92;100.00
56456;BME280;42354;53.218;6.564;2023-03-23T02:41:01;47059.09;;;-142.92;100.00
56456;BME280;42354;53.218;6.564;2023-03-23T02:43:33;47040.63;;;-142.92;100.00
56456;BME280;42354;53.218;6.564;2023-03-23T02:46:05;47018.06;;;-142.92;100.00
56456;BME280;42354;53.218;6.564;2023-03-23T02:48:33;47042.69;;;-142.92;100.00
56456;BME280;42354;53.218;6.564;2023-03-23T02:51:00;47016.00;;;-142.92;100.00
56456;BME280;42354;53.218;6.564;2023-03-23T02:53:28;47016.00;;;-142.92;100.00
56456;BME280;42354;53.218;6.564;2023-03-23T02:55:57;46974.97;;;-142.92;100.00
56456;BME280;42354;53.218;6.564;2023-03-23T02:58:23;46919.56;;;-142.92;100.00
56456;BME280;42354;53.218;6.564;2023-03-23T03:00:50;46897.00;;;-142.92;100.00
56456;BME280;42354;53.218;6.564;2023-03-23T03:03:22;46831.34;;;-142.92;100.00
56456;BME280;42354;53.218;6.564;2023-03-23T03:11:12;46747.22;;;-142.92;100.00
56456;BME280;42354;53.218;6.564;2023-03-23T03:14:09;46732.84;;;-142.92;100.00
56456;BME280;42354;53.218;6.564;2023-03-23T03:16:44;46769.78;;;-142.92;100.00
56456;BME280;42354;53.218;6.564;2023-03-23T03:19:24;46736.94;;;-142.92;100.00
56456;BME280;42354;53.218;6.564;2023-03-23T03:21:53;46780.03;;;-142.92;100.00
56456;BME280;42354;53.218;6.564;2023-03-23T03:24:21;46761.56;;;-142.92;100.00
56456;BME280;42354;53.218;6.564;2023-03-23T03:26:49;46757.47;;;-142.92;100.00
56456;BME280;42354;53.218;6.564;2023-03-23T03:29:17;46786.19;;;-142.92;100.00
56456;BME280;42354;53.218;6.564;2023-03-23T03:31:44;46814.91;;;-142.92;100.00
56456;BME280;42354;53.218;6.564;2023-03-23T03:34:12;46831.34;;;-142.92;100.00
56456;BME280;42354;53.218;6.564;2023-03-23T03:36:43;46831.34;;;-142.92;100.00
56456;BME280;42354;53.218;6.564;2023-03-23T03:39:13;46835.44;;;-142.92;100.00
56456;BME280;42354;53.218;6.564;2023-03-23T03:41:40;46835.44;;;-142.92;100.00
56456;BME280;42354;53.218;6.564;2023-03-23T03:44:07;46849.81;;;-142.92;100.00
56456;BME280;42354;53.218;6.564;2023-03-23T03:46:35;46864.16;;;-142.92;100.00
56456;BME280;42354;53.218;6.564;2023-03-23T03:49:02;46894.94;;;-142.92;100.00
56456;BME280;42354;53.218;6.564;2023-03-23T03:51:29;46999.59;;;-142.92;100.00
56456;BME280;42354;53.218;6.564;2023-03-23T03:53:55;46999.59;;;-142.92;100.00
56456;BME280;42354;53.218;6.564;2023-03-23T03:56:21;46999.59;;;-142.92;100.00
56456;BME280;42354;53.218;6.564;2023-03-23T03:58:49;46995.50;;;-142.92;100.00
56456;BME280;42354;53.218;6.564;2023-03-23T04:01:16;47007.81;;;-142.92;100.00
56456;BME280;42354;53.218;6.564;2023-03-23T04:03:42;47003.69;;;-142.92;100.00
56456;BME280;42354;53.218;6.564;2023-03-23T04:06:08;46765.69;;;-142.92;100.00
56456;BME280;42354;53.218;6.564;2023-03-23T04:08:35;46780.03;;;-142.92;100.00
56456;BME280;42354;53.218;6.564;2023-03-23T04:11:03;46810.81;;;-142.92;100.00
56456;BME280;42354;53.218;6.564;2023-03-23T04:13:29;46829.28;;;-142.92;100.00
56456;BME280;42354;53.218;6.564;2023-03-23T04:15:54;46872.38;;;-142.92;100.00
56456;BME280;42354;53.218;6.564;2023-03-23T04:18:20;46866.22;;;-142.92;100.00
56456;BME280;42354;53.218;6.564;2023-03-23T04:20:48;46819.03;;;-142.92;100.00
56456;BME280;42354;53.218;6.564;2023-03-23T04:23:15;46810.81;;;-142.92;100.00
56456;BME280;42354;53.218;6.564;2023-03-23T04:25:46;46777.97;;;-142.92;100.00
56456;BME280;42354;53.218;6.564;2023-03-23T04:28:12;46745.16;;;-142.92;100.00
56456;BME280;42354;53.218;6.564;2023-03-23T04:30:37;46736.94;;;-142.92;100.00
56456;BME280;42354;53.218;6.564;2023-03-23T04:33:03;46777.97;;;-142.92;100.00
56456;BME280;42354;53.218;6.564;2023-03-23T04:35:29;46915.47;;;-142.92;100.00
56456;BME280;42354;53.218;6.564;2023-03-23T04:37:56;47091.94;;;-142.92;100.00
56456;BME280;42354;53.218;6.564;2023-03-23T04:40:23;47120.66;;;-142.92;100.00
56456;BME280;42354;53.218;6.564;2023-03-23T04:42:49;47116.56;;;-142.92;100.00
56456;BME280;42354;53.218;6.564;2023-03-23T04:45:19;47098.09;;;-142.92;100.00
56456;BME280;42354;53.218;6.564;2023-03-23T04:47:51;47159.66;;;-142.92;100.00
56456;BME280;42354;53.218;6.564;2023-03-23T04:50:24;47157.59;;;-142.92;100.00
56456;BME280;42354;53.218;6.564;2023-03-23T04:52:51;47139.13;;;-142.92;100.00
56456;BME280;42354;53.218;6.564;2023-03-23T04:55:18;47061.16;;;-142.92;100.00
56456;BME280;42354;53.218;6.564;2023-03-23T04:57:45;47009.84;;;-142.92;100.00
56456;BME280;42354;53.218;6.564;2023-03-23T05:00:11;46925.72;;;-142.92;100.00
56456;BME280;42354;53.218;6.564;2023-03-23T05:02:39;46839.53;;;-142.92;100.00
56456;BME280;42354;53.218;6.564;2023-03-23T05:05:06;46741.06;;;-142.92;100.00
56456;BME280;42354;53.218;6.564;2023-03-23T05:07:32;46987.28;;;-142.92;100.00
56456;BME280;42354;53.218;6.564;2023-03-23T05:09:57;46997.53;;;-142.92;100.00
56456;BME280;42354;53.218;6.564;2023-03-23T05:12:24;47016.00;;;-142.92;100.00
56456;BME280;42354;53.218;6.564;2023-03-23T05:14:50;46993.44;;;-142.92;100.00
56456;BME280;42354;53.218;6.564;2023-03-23T05:17:15;47001.66;;;-142.92;100.00
56456;BME280;42354;53.218;6.564;2023-03-23T05:19:45;47020.13;;;-142.92;100.00
56456;BME280;42354;53.218;6.564;2023-03-23T05:22:14;46993.44;;;-142.92;100.00
56456;BME280;42354;53.218;6.564;2023-03-23T05:24:40;47007.81;;;-142.92;100.00
56456;BME280;42354;53.218;6.564;2023-03-23T05:27:05;47040.63;;;-142.92;100.00
56456;BME280;42354;53.218;6.564;2023-03-23T05:29:33;47003.69;;;-142.92;100.00
56456;BME280;42354;53.218;6.564;2023-03-23T05:32:01;47003.69;;;-142.92;100.00
56456;BME280;42354;53.218;6.564;2023-03-23T05:34:27;47011.91;;;-142.92;100.00
56456;BME280;42354;53.218;6.564;2023-03-23T05:36:54;47007.81;;;-142.92;100.00
56456;BME280;42354;53.218;6.564;2023-03-23T05:39:21;47007.81;;;-142.92;100.00
56456;BME280;42354;53.218;6.564;2023-03-23T05:41:47;46997.53;;;-142.92;100.00
56456;BME280;42354;53.218;6.564;2023-03-23T05:44:12;47005.75;;;-142.92;100.00
56456;BME280;42354;53.218;6.564;2023-03-23T05:46:39;47016.00;;;-142.92;100.00
56456;BME280;42354;53.218;6.564;2023-03-23T05:49:04;46995.50;;;-142.92;100.00
56456;BME280;42354;53.218;6.564;2023-03-23T05:51:30;47001.66;;;-142.92;100.00
56456;BME280;42354;53.218;6.564;2023-03-23T05:53:55;47003.69;;;-142.92;100.00
56456;BME280;42354;53.218;6.564;2023-03-23T05:56:22;46997.53;;;-142.92;100.00
56456;BME280;42354;53.218;6.564;2023-03-23T05:58:47;47011.91;;;-142.92;100.00
56456;BME280;42354;53.218;6.564;2023-03-23T06:01:13;47013.97;;;-142.92;99.43
56456;BME280;42354;53.218;6.564;2023-03-23T06:03:39;46999.59;;;-142.92;99.11
56456;BME280;42354;53.218;6.564;2023-03-23T06:06:05;47018.06;;;-142.92;98.71
56456;BME280;42354;53.218;6.564;2023-03-23T06:08:30;46997.53;;;-142.92;98.71
56456;BME280;42354;53.218;6.564;2023-03-23T06:10:56;47018.06;;;-142.92;98.23
56456;BME280;42354;53.218;6.564;2023-03-23T06:13:22;47011.91;;;-142.92;98.04
56456;BME280;42354;53.218;6.564;2023-03-23T06:15:47;47011.91;;;-142.92;96.86
56456;BME280;42354;53.218;6.564;2023-03-23T06:18:13;47026.28;;;-142.92;97.34
56456;BME280;42354;53.218;6.564;2023-03-23T06:20:39;47024.22;;;-142.92;96.97
56456;BME280;42354;53.218;6.564;2023-03-23T06:23:04;47007.81;;;-142.92;96.52
56456;BME280;42354;53.218;6.564;2023-03-23T06:25:31;47016.00;;;-142.92;96.00
56456;BME280;42354;53.218;6.564;2023-03-23T06:27:56;46995.50;;;-142.92;96.36
56456;BME280;42354;53.218;6.564;2023-03-23T06:30:22;47018.06;;;-142.92;95.82
56456;BME280;42354;53.218;6.564;2023-03-23T06:32:48;47018.06;;;-142.92;95.52
56456;BME280;42354;53.218;6.564;2023-03-23T06:35:14;47013.97;;;-142.92;93.76
56456;BME280;42354;53.218;6.564;2023-03-23T06:37:41;47003.69;;;-142.92;94.49
56456;BME280;42354;53.218;6.564;2023-03-23T06:40:06;47016.00;;;-142.92;93.88
56456;BME280;42354;53.218;6.564;2023-03-23T06:42:32;47022.16;;;-142.92;92.94
56456;BME280;42354;53.218;6.564;2023-03-23T06:44:58;47024.22;;;-142.92;93.40
56456;BME280;42354;53.218;6.564;2023-03-23T06:47:26;47011.91;;;-142.92;93.00
56456;BME280;42354;53.218;6.564;2023-03-23T06:49:52;46993.44;;;-142.92;90.55
56456;BME280;42354;53.218;6.564;2023-03-23T06:52:18;47013.97;;;-142.92;90.30
56456;BME280;42354;53.218;6.564;2023-03-23T06:54:43;46995.50;;;-142.92;90.74
56456;BME280;42354;53.218;6.564;2023-03-23T06:57:10;47009.84;;;-142.92;89.85
56456;BME280;42354;53.218;6.564;2023-03-23T06:59:36;46997.53;;;-142.92;89.81
56456;BME280;42354;53.218;6.564;2023-03-23T07:02:02;46993.44;;;-142.92;87.33
56456;BME280;42354;53.218;6.564;2023-03-23T07:04:28;47020.13;;;-142.92;84.41
56456;BME280;42354;53.218;6.564;2023-03-23T07:06:54;47007.81;;;-142.92;83.81
56456;BME280;42354;53.218;6.564;2023-03-23T07:09:22;46991.38;;;-142.92;84.12
56456;BME280;42354;53.218;6.564;2023-03-23T07:11:48;46985.22;;;-142.92;84.00
56456;BME280;42354;53.218;6.564;2023-03-23T07:14:16;47009.84;;;-142.92;84.73
56456;BME280;42354;53.218;6.564;2023-03-23T07:16:41;47001.66;;;-142.92;85.64
56456;BME280;42354;53.218;6.564;2023-03-23T07:19:07;47016.00;;;-142.92;86.52
56456;BME280;42354;53.218;6.564;2023-03-23T07:21:32;47020.13;;;-142.92;87.05
56456;BME280;42354;53.218;6.564;2023-03-23T07:23:58;47003.69;;;-142.92;87.77
56456;BME280;42354;53.218;6.564;2023-03-23T07:26:23;46987.28;;;-142.92;87.86
56456;BME280;42354;53.218;6.564;2023-03-23T07:28:48;47020.13;;;-142.92;88.61
56456;BME280;42354;53.218;6.564;2023-03-23T07:31:14;46997.53;;;-142.92;88.88
56456;BME280;42354;53.218;6.564;2023-03-23T07:33:39;47020.13;;;-142.92;89.29
56456;BME280;42354;53.218;6.564;2023-03-23T07:36:05;46999.59;;;-142.92;89.78
56456;BME280;42354;53.218;6.564;2023-03-23T07:38:31;47007.81;;;-142.92;90.14
56456;BME280;42354;53.218;6.564;2023-03-23T07:40:56;46999.59;;;-142.92;90.75
56456;BME280;42354;53.218;6.564;2023-03-23T07:43:23;47016.00;;;-142.92;90.87
56456;BME280;42354;53.218;6.564;2023-03-23T07:45:49;47003.69;;;-142.92;90.60
56456;BME280;42354;53.218;6.564;2023-03-23T07:48:15;47005.75;;;-142.92;90.29
56456;BME280;42354;53.218;6.564;2023-03-23T07:50:40;47007.81;;;-142.92;90.55
56456;BME280;42354;53.218;6.564;2023-03-23T07:53:06;47009.84;;;-142.92;91.44
56456;BME280;42354;53.218;6.564;2023-03-23T07:55:31;47005.75;;;-142.92;91.33
56456;BME280;42354;53.218;6.564;2023-03-23T07:57:58;47009.84;;;-142.92;90.86
56456;BME280;42354;53.218;6.564;2023-03-23T08:00:24;47003.69;;;-142.92;90.96
56456;BME280;42354;53.218;6.564;2023-03-23T08:02:52;47022.16;;;-142.92;91.86
56456;BME280;42354;53.218;6.564;2023-03-23T08:05:19;47022.16;;;-142.92;90.59
56456;BME280;42354;53.218;6.564;2023-03-23T08:07:46;47001.66;;;-142.92;88.88
56456;BME280;42354;53.218;6.564;2023-03-23T08:10:13;47011.91;;;-142.92;88.02
56456;BME280;42354;53.218;6.564;2023-03-23T08:12:41;47009.84;;;-142.92;88.29
56456;BME280;42354;53.218;6.564;2023-03-23T08:15:09;47026.28;;;-142.92;87.36
56456;BME280;42354;53.218;6.564;2023-03-23T08:17:38;47001.66;;;-142.92;87.14
56456;BME280;42354;53.218;6.564;2023-03-23T08:20:04;47003.69;;;-142.92;86.79
56456;BME280;42354;53.218;6.564;2023-03-23T08:22:37;47026.28;;;-142.92;86.15
56456;BME280;42354;53.218;6.564;2023-03-23T08:25:05;47018.06;;;-142.92;86.02
56456;BME280;42354;53.218;6.564;2023-03-23T08:27:32;47020.13;;;-142.92;85.26
56456;BME280;42354;53.218;6.564;2023-03-23T08:29:58;47022.16;;;-142.92;85.59
56456;BME280;42354;53.218;6.564;2023-03-23T08:32:24;47020.13;;;-142.92;85.55
56456;BME280;42354;53.218;6.564;2023-03-23T08:34:50;47005.75;;;-142.92;84.74
56456;BME280;42354;53.218;6.564;2023-03-23T08:37:15;47001.66;;;-142.92;85.42
56456;BME280;42354;53.218;6.564;2023-03-23T08:39:42;47009.84;;;-142.92;84.64
56456;BME280;42354;53.218;6.564;2023-03-23T08:42:08;47016.00;;;-142.92;85.22
56456;BME280;42354;53.218;6.564;2023-03-23T08:44:36;47016.00;;;-142.92;84.02
56456;BME280;42354;53.218;6.564;2023-03-23T08:47:02;47018.06;;;-142.92;83.44
56456;BME280;42354;53.218;6.564;2023-03-23T08:49:30;47009.84;;;-142.92;83.70
56456;BME280;42354;53.218;6.564;2023-03-23T08:51:58;46999.59;;;-142.92;83.61
56456;BME280;42354;53.218;6.564;2023-03-23T08:54:25;46987.28;;;-142.92;83.58
56456;BME280;42354;53.218;6.564;2023-03-23T08:56:51;46987.28;;;-142.92;81.48
56456;BME280;42354;53.218;6.564;2023-03-23T08:59:17;47020.13;;;-142.92;80.28
56456;BME280;42354;53.218;6.564;2023-03-23T09:01:43;47003.69;;;-142.92;79.46
56456;BME280;42354;53.218;6.564;2023-03-23T09:04:09;47011.91;;;-142.92;78.30
56456;BME280;42354;53.218;6.564;2023-03-23T09:06:36;47001.66;;;-142.92;78.86
56456;BME280;42354;53.218;6.564;2023-03-23T09:09:02;47011.91;;;-142.92;78.83
56456;BME280;42354;53.218;6.564;2023-03-23T09:11:32;47022.16;;;-142.92;78.88
56456;BME280;42354;53.218;6.564;2023-03-23T09:13:58;46999.59;;;-142.92;78.26
56456;BME280;42354;53.218;6.564;2023-03-23T09:16:23;47018.06;;;-142.92;77.81
56456;BME280;42354;53.218;6.564;2023-03-23T09:18:49;47013.97;;;-142.92;76.82
56456;BME280;42354;53.218;6.564;2023-03-23T09:21:15;47016.00;;;-142.92;76.45
56456;BME280;42354;53.218;6.564;2023-03-23T09:23:41;47028.31;;;-142.92;75.38
56456;BME280;42354;53.218;6.564;2023-03-23T09:26:09;47007.81;;;-142.92;75.34
56456;BME280;42354;53.218;6.564;2023-03-23T09:28:35;46995.50;;;-142.92;75.31
56456;BME280;42354;53.218;6.564;2023-03-23T09:31:00;47011.91;;;-142.92;74.89
56456;BME280;42354;53.218;6.564;2023-03-23T09:33:26;46997.53;;;-142.92;75.57
56456;BME280;42354;53.218;6.564;2023-03-23T09:35:54;47009.84;;;-142.92;75.42
56456;BME280;42354;53.218;6.564;2023-03-23T09:38:19;47020.13;;;-142.92;74.38
56456;BME280;42354;53.218;6.564;2023-03-23T09:40:51;46991.38;;;-142.92;72.92
56456;BME280;42354;53.218;6.564;2023-03-23T09:49:45;47009.84;;;-142.92;68.16
56456;BME280;42354;53.218;6.564;2023-03-23T09:52:15;47016.00;;;-142.92;68.10
56456;BME280;42354;53.218;6.564;2023-03-23T09:54:44;47016.00;;;-142.92;64.76
56456;BME280;42354;53.218;6.564;2023-03-23T10:00:04;46993.44;;;-142.92;63.46
56456;BME280;42354;53.218;6.564;2023-03-23T10:02:43;47005.75;;;-142.92;62.88
56456;BME280;42354;53.218;6.564;2023-03-23T10:05:46;46991.38;;;-142.92;61.75
56456;BME280;42354;53.218;6.564;2023-03-23T10:08:16;46999.59;;;-142.92;60.96
56456;BME280;42354;53.218;6.564;2023-03-23T10:13:23;47009.84;;;-142.92;61.68
56456;BME280;42354;53.218;6.564;2023-03-23T10:15:50;46999.59;;;-142.92;63.52
56456;BME280;42354;53.218;6.564;2023-03-23T10:21:23;47007.81;;;-142.92;62.95
56456;BME280;42354;53.218;6.564;2023-03-23T10:23:53;47011.91;;;-142.92;61.64
56456;BME280;42354;53.218;6.564;2023-03-23T10:28:51;46993.44;;;-142.92;60.23
56456;BME280;42354;53.218;6.564;2023-03-23T10:31:46;46987.28;;;-142.92;58.92
56456;BME280;42354;53.218;6.564;2023-03-23T10:34:28;47007.81;;;-142.92;59.22
56456;BME280;42354;53.218;6.564;2023-03-23T10:37:10;46999.59;;;-142.92;58.31
56456;BME280;42354;53.218;6.564;2023-03-23T10:39:57;47009.84;;;-142.92;60.56
56456;BME280;42354;53.218;6.564;2023-03-23T10:44:56;47007.81;;;-142.92;62.65
56456;BME280;42354;53.218;6.564;2023-03-23T10:47:24;46997.53;;;-142.92;63.18
56456;BME280;42354;53.218;6.564;2023-03-23T10:49:56;46987.28;;;-142.92;63.79
56456;BME280;42354;53.218;6.564;2023-03-23T10:55:03;47003.69;;;-142.92;62.95
56456;BME280;42354;53.218;6.564;2023-03-23T10:57:34;46993.44;;;-142.92;63.28
56456;BME280;42354;53.218;6.564;2023-03-23T11:02:26;47003.69;;;-142.92;63.30
56456;BME280;42354;53.218;6.564;2023-03-23T11:05:00;47013.97;;;-142.92;63.76
56456;BME280;42354;53.218;6.564;2023-03-23T11:07:32;46987.28;;;-142.92;63.44
56456;BME280;42354;53.218;6.564;2023-03-23T11:10:08;46991.38;;;-142.92;63.15
56456;BME280;42354;53.218;6.564;2023-03-23T11:12:44;47007.81;;;-142.92;62.44
56456;BME280;42354;53.218;6.564;2023-03-23T11:15:22;46999.59;;;-142.92;61.83
56456;BME280;42354;53.218;6.564;2023-03-23T11:18:02;46999.59;;;-142.92;62.00
56456;BME280;42354;53.218;6.564;2023-03-23T11:20:32;47005.75;;;-142.92;61.60
56456;BME280;42354;53.218;6.564;2023-03-23T11:23:01;47003.69;;;-142.92;54.83
56456;BME280;42354;53.218;6.564;2023-03-23T11:25:32;47003.69;;;-142.92;54.93
56456;BME280;42354;53.218;6.564;2023-03-23T11:28:00;47005.75;;;-142.92;53.29
56456;BME280;42354;53.218;6.564;2023-03-23T11:30:27;46993.44;;;-142.92;51.85
56456;BME280;42354;53.218;6.564;2023-03-23T11:32:59;47003.69;;;-142.92;52.51
56456;BME280;42354;53.218;6.564;2023-03-23T11:35:27;46997.53;;;-142.92;53.93
56456;BME280;42354;53.218;6.564;2023-03-23T11:37:57;47001.66;;;-142.92;54.06
56456;BME280;42354;53.218;6.564;2023-03-23T11:40:26;47003.69;;;-142.92;55.77
56456;BME280;42354;53.218;6.564;2023-03-23T11:45:37;46983.19;;;-142.92;53.91
56456;BME280;42354;53.218;6.564;2023-03-23T11:50:59;46985.22;;;-142.92;48.97
56456;BME280;42354;53.218;6.564;2023-03-23T11:56:09;46999.59;;;-142.92;47.38
56456;BME280;42354;53.218;6.564;2023-03-23T11:58:36;47009.84;;;-142.92;46.44
56456;BME280;42354;53.218;6.564;2023-03-23T12:03:58;47009.84;;;-142.92;44.42
56456;BME280;42354;53.218;6.564;2023-03-23T12:06:39;46983.19;;;-142.92;43.33
56456;BME280;42354;53.218;6.564;2023-03-23T12:09:18;46991.38;;;-142.92;43.11
56456;BME280;42354;53.218;6.564;2023-03-23T12:20:18;46991.38;;;-142.92;40.89
56456;BME280;42354;53.218;6.564;2023-03-23T12:23:07;46995.50;;;-142.92;40.71
56456;BME280;42354;53.218;6.564;2023-03-23T12:26:18;46999.59;;;-142.92;41.08
56456;BME280;42354;53.218;6.564;2023-03-23T12:37:13;47009.84;;;-142.92;41.59
56456;BME280;42354;53.218;6.564;2023-03-23T12:40:12;46997.53;;;-142.92;40.83
56456;BME280;42354;53.218;6.564;2023-03-23T12:48:02;46985.22;;;-142.92;43.41
56456;BME280;42354;53.218;6.564;2023-03-23T12:53:33;46995.50;;;-142.92;45.26
56456;BME280;42354;53.218;6.564;2023-03-23T12:56:37;47003.69;;;-142.92;45.40
56456;BME280;42354;53.218;6.564;2023-03-23T12:59:13;46983.19;;;-142.92;45.90
56456;BME280;42354;53.218;6.564;2023-03-23T13:01:47;46987.28;;;-142.92;46.27
56456;BME280;42354;53.218;6.564;2023-03-23T13:04:55;46987.28;;;-142.92;46.03
56456;BME280;42354;53.218;6.564;2023-03-23T13:07:20;46983.19;;;-142.92;44.77
56456;BME280;42354;53.218;6.564;2023-03-23T13:09:54;47005.75;;;-142.92;44.96
56456;BME280;42354;53.218;6.564;2023-03-23T13:12:21;46985.22;;;-142.92;44.83
56456;BME280;42354;53.218;6.564;2023-03-23T13:18:13;46995.50;;;-142.92;45.28
56456;BME280;42354;53.218;6.564;2023-03-23T13:20:55;46989.34;;;-142.92;46.86
56456;BME280;42354;53.218;6.564;2023-03-23T13:23:31;46997.53;;;-142.92;46.68
56456;BME280;42354;53.218;6.564;2023-03-23T13:26:06;47003.69;;;-142.92;47.81
56456;BME280;42354;53.218;6.564;2023-03-23T13:31:33;47003.69;;;-142.92;49.68
56456;BME280;42354;53.218;6.564;2023-03-23T13:34:06;46989.34;;;-142.92;50.38
56456;BME280;42354;53.218;6.564;2023-03-23T13:36:38;47003.69;;;-142.92;51.42
56456;BME280;42354;53.218;6.564;2023-03-23T13:39:16;46993.44;;;-142.92;52.78
56456;BME280;42354;53.218;6.564;2023-03-23T13:47:28;46997.53;;;-142.92;54.88
56456;BME280;42354;53.218;6.564;2023-03-23T13:50:01;46993.44;;;-142.92;55.10
56456;BME280;42354;53.218;6.564;2023-03-23T13:52:46;46985.22;;;-142.92;53.30
56456;BME280;42354;53.218;6.564;2023-03-23T13:57:58;46983.19;;;-142.92;53.35
56456;BME280;42354;53.218;6.564;2023-03-23T14:00:47;47003.69;;;-142.92;53.05
56456;BME280;42354;53.218;6.564;2023-03-23T14:03:18;46997.53;;;-142.92;50.86
56456;BME280;42354;53.218;6.564;2023-03-23T14:10:55;46987.28;;;-142.92;47.68
56456;BME280;42354;53.218;6.564;2023-03-23T14:13:49;46995.50;;;-142.92;47.47
56456;BME280;42354;53.218;6.564;2023-03-23T14:16:23;46999.59;;;-142.92;48.45
56456;BME280;42354;53.218;6.564;2023-03-23T14:18:57;46985.22;;;-142.92;49.02
56456;BME280;42354;53.218;6.564;2023-03-23T14:21:54;46979.06;;;-142.92;48.38
56456;BME280;42354;53.218;6.564;2023-03-23T14:24:26;46999.59;;;-142.92;48.49
56456;BME280;42354;53.218;6.564;2023-03-23T14:29:34;47013.97;;;-142.92;49.32
56456;BME280;42354;53.218;6.564;2023-03-23T14:31:59;46991.38;;;-142.92;49.84
56456;BME280;42354;53.218;6.564;2023-03-23T14:34:28;46993.44;;;-142.92;50.67